Time;durP1;ratioP1;P1;durP2;ratioP2;P2;SDS_P1;SDS_P2;PMS_P1;PMS_P2;Temp;Humidity;BMP_temperature;BMP_pressure;BME280_temperature;BME280_humidity;BME280_pressure;Samples;Min_cycle;Max_cycle;Signal;HPM_P1;HPM_P2
2024/05/04 00:02:13;;;;;;;5.82;3.70;;;;;;;9.96;100.00;96224.50;5341425;26;20457;-61
2024/05/04 00:04:38;;;;;;;5.70;3.40;;;;;;;10.03;100.00;96214.59;5341352;26;20008;-61
2024/05/04 00:07:04;;;;;;;10.15;4.35;;;;;;;9.84;100.00;96221.22;5341498;26;20078;-60
2024/05/04 00:09:29;;;;;;;7.28;4.28;;;;;;;9.98;100.00;96230.34;5339174;26;20009;-61
2024/05/04 00:11:54;;;;;;;5.93;3.88;;;;;;;9.93;100.00;96216.31;5339274;26;20019;-61
2024/05/04 00:14:19;;;;;;;7.38;4.00;;;;;;;9.74;100.00;96215.84;5342313;26;20586;-63
2024/05/04 00:16:45;;;;;;;6.85;3.85;;;;;;;9.85;100.00;96220.19;5339331;26;20322;-62
2024/05/04 00:19:10;;;;;;;5.82;4.50;;;;;;;9.75;100.00;96220.06;5342223;26;20013;-62
2024/05/04 00:21:35;;;;;;;4.93;3.65;;;;;;;9.65;100.00;96210.22;5338054;26;20538;-61
2024/05/04 00:24:01;;;;;;;6.55;4.40;;;;;;;9.78;100.00;96214.31;5341624;26;20358;-62
2024/05/04 00:26:26;;;;;;;6.10;3.70;;;;;;;9.71;100.00;96218.97;5341237;26;20136;-60
2024/05/04 00:28:51;;;;;;;5.47;3.90;;;;;;;9.71;100.00;96214.50;5340440;26;20087;-62
2024/05/04 00:31:16;;;;;;;4.07;3.28;;;;;;;9.69;100.00;96210.53;5340900;26;20122;-62
2024/05/04 00:33:42;;;;;;;5.63;4.25;;;;;;;9.89;100.00;96210.75;5345894;26;20093;-61
2024/05/04 00:36:08;;;;;;;7.88;4.18;;;;;;;9.95;100.00;96209.75;5345541;26;20020;-62
2024/05/04 00:38:33;;;;;;;8.60;5.10;;;;;;;10.12;100.00;96219.41;5340513;26;20009;-62
2024/05/04 00:40:59;;;;;;;5.60;3.88;;;;;;;10.24;100.00;96212.97;5341536;26;20348;-60
2024/05/04 00:43:24;;;;;;;6.13;3.72;;;;;;;10.13;100.00;96210.47;5338283;26;20013;-60
2024/05/04 00:45:49;;;;;;;5.63;4.00;;;;;;;9.99;100.00;96213.47;5340866;26;20017;-61
2024/05/04 00:48:15;;;;;;;5.70;4.07;;;;;;;10.39;100.00;96214.16;5340400;26;20362;-61
2024/05/04 00:50:42;;;;;;;5.63;3.60;;;;;;;10.55;100.00;96213.25;5340947;26;20143;-61
2024/05/04 00:53:07;;;;;;;7.78;3.97;;;;;;;10.73;100.00;96207.59;5341201;26;20098;-62
2024/05/04 00:55:33;;;;;;;11.88;4.40;;;;;;;10.95;100.00;96211.94;5340490;26;20009;-61
2024/05/04 00:57:59;;;;;;;4.80;3.78;;;;;;;11.12;100.00;96211.78;5340938;26;20013;-62
2024/05/04 01:00:25;;;;;;;5.85;3.75;;;;;;;11.30;99.97;96211.34;5343728;26;20108;-61
2024/05/04 01:02:51;;;;;;;5.13;3.80;;;;;;;11.75;97.83;96215.25;5341380;26;20020;-63
2024/05/04 01:05:17;;;;;;;5.60;3.80;;;;;;;11.72;97.82;96210.47;5340953;26;20095;-62
2024/05/04 01:07:44;;;;;;;5.32;3.78;;;;;;;11.65;95.02;96210.72;5341070;26;20005;-62
2024/05/04 01:10:10;;;;;;;8.00;4.05;;;;;;;11.65;95.92;96210.72;5339502;26;20453;-61
2024/05/04 01:12:35;;;;;;;6.70;3.60;;;;;;;11.56;95.98;96213.06;5340914;26;20020;-62
2024/05/04 01:15:04;;;;;;;7.35;4.03;;;;;;;11.68;96.49;96206.75;5336394;26;20005;-62
2024/05/04 01:17:30;;;;;;;4.55;3.50;;;;;;;11.88;95.07;96201.59;5337038;26;20012;-61
2024/05/04 01:19:55;;;;;;;5.63;3.30;;;;;;;11.53;94.61;96205.63;5345936;26;20481;-62
2024/05/04 01:22:22;;;;;;;4.95;3.53;;;;;;;11.36;95.94;96197.13;5337314;26;20009;-62
2024/05/04 01:24:47;;;;;;;5.55;3.65;;;;;;;11.21;99.66;96200.50;5338020;26;20035;-62
2024/05/04 01:27:12;;;;;;;7.65;2.97;;;;;;;11.76;96.53;96201.78;5340944;26;20690;-61
2024/05/04 01:29:38;;;;;;;6.68;3.33;;;;;;;11.44;97.11;96204.53;5340270;26;20025;-62
2024/05/04 01:32:03;;;;;;;4.47;3.03;;;;;;;11.66;97.01;96200.94;5339830;26;20086;-61
2024/05/04 01:34:28;;;;;;;4.20;2.97;;;;;;;11.53;95.66;96196.94;5340787;26;20345;-61
2024/05/04 01:36:54;;;;;;;4.63;3.08;;;;;;;11.36;97.12;96194.50;5340450;26;20004;-62
2024/05/04 01:39:19;;;;;;;4.90;3.45;;;;;;;11.47;97.09;96197.97;5339898;26;20031;-63
2024/05/04 01:41:46;;;;;;;8.52;3.65;;;;;;;11.37;97.25;96193.44;5339778;26;20485;-61
2024/05/04 01:44:11;;;;;;;4.47;3.33;;;;;;;11.26;98.52;96197.09;5340260;26;20024;-62
2024/05/04 01:46:37;;;;;;;6.85;3.67;;;;;;;11.07;98.73;96188.78;5339691;26;20044;-62
2024/05/04 01:49:02;;;;;;;6.05;3.58;;;;;;;11.13;99.31;96200.19;5341271;26;20019;-62
2024/05/04 01:51:27;;;;;;;5.10;3.35;;;;;;;11.28;99.09;96200.25;5340504;26;20009;-61
2024/05/04 01:53:52;;;;;;;9.30;4.18;;;;;;;11.10;99.58;96187.47;5339617;26;20009;-65
2024/05/04 01:56:18;;;;;;;6.57;3.30;;;;;;;11.08;99.68;96194.88;5340711;26;20040;-62
2024/05/04 01:58:44;;;;;;;5.95;3.95;;;;;;;11.08;99.88;96190.38;5339544;26;20090;-62
2024/05/04 02:01:17;;;;;;;8.23;3.88;;;;;;;11.15;99.00;96184.84;5340157;26;20005;-61
2024/05/04 02:03:44;;;;;;;4.47;3.85;;;;;;;11.18;99.20;96179.06;5339960;26;20099;-63
2024/05/04 02:06:09;;;;;;;5.57;3.88;;;;;;;11.34;98.76;96182.56;5340498;26;20031;-60
2024/05/04 02:08:34;;;;;;;9.02;4.15;;;;;;;11.51;97.00;96183.97;5358752;26;20349;-62
2024/05/04 02:11:00;;;;;;;4.78;3.28;;;;;;;11.40;98.19;96184.19;5340627;26;20020;-62
2024/05/04 02:13:25;;;;;;;5.65;3.88;;;;;;;11.43;97.63;96183.66;5339306;26;20341;-61
2024/05/04 02:15:50;;;;;;;6.00;3.90;;;;;;;11.47;96.71;96177.63;5340575;26;20037;-62
2024/05/04 02:18:16;;;;;;;3.97;3.35;;;;;;;11.66;94.28;96179.81;5346216;26;20004;-61
2024/05/04 02:20:41;;;;;;;4.40;3.20;;;;;;;11.62;94.55;96178.72;5339359;26;20019;-61
2024/05/04 02:23:07;;;;;;;5.93;3.97;;;;;;;11.62;94.60;96184.00;5339606;26;20086;-63
2024/05/04 02:25:33;;;;;;;5.10;3.65;;;;;;;11.65;95.63;96183.50;5339007;26;20024;-62
2024/05/04 02:27:58;;;;;;;5.97;3.40;;;;;;;11.88;94.03;96177.78;5338960;26;20003;-63
2024/05/04 02:30:23;;;;;;;6.30;2.92;;;;;;;11.86;93.62;96177.25;5339134;26;20013;-62
2024/05/04 02:32:49;;;;;;;5.57;2.90;;;;;;;11.81;92.67;96182.50;5338446;26;20005;-62
2024/05/04 02:35:14;;;;;;;7.15;2.92;;;;;;;11.88;92.98;96184.91;5339437;26;20352;-62
2024/05/04 02:37:39;;;;;;;5.80;3.53;;;;;;;11.74;93.28;96192.53;5339375;26;20082;-62
2024/05/04 02:40:05;;;;;;;8.52;3.50;;;;;;;11.89;93.34;96184.66;5339506;26;20248;-61
2024/05/04 02:42:30;;;;;;;6.25;2.78;;;;;;;11.86;93.13;96181.75;5336677;26;20009;-62
2024/05/04 02:44:58;;;;;;;4.93;3.42;;;;;;;11.67;94.65;96176.09;5339382;26;20097;-61
2024/05/04 02:47:23;;;;;;;7.18;3.55;;;;;;;11.90;93.27;96174.88;5340350;26;20009;-62
2024/05/04 02:49:49;;;;;;;4.68;3.47;;;;;;;12.07;92.37;96170.13;5339689;26;20036;-61
2024/05/04 02:52:14;;;;;;;10.13;4.20;;;;;;;11.96;91.72;96174.63;5338909;26;20013;-61
2024/05/04 02:54:39;;;;;;;7.47;3.70;;;;;;;12.07;90.52;96160.38;5339688;26;20013;-61
2024/05/04 02:57:04;;;;;;;4.90;2.97;;;;;;;12.05;89.39;96165.13;5339150;26;20899;-62
2024/05/04 02:59:30;;;;;;;7.40;3.25;;;;;;;11.86;90.73;96164.03;5339742;26;20020;-62
2024/05/04 03:01:55;;;;;;;4.37;3.13;;;;;;;11.86;91.00;96168.53;5339179;26;20344;-61
2024/05/04 03:04:20;;;;;;;5.78;3.35;;;;;;;11.67;93.19;96166.31;5339479;26;20350;-62
2024/05/04 03:06:45;;;;;;;4.87;2.93;;;;;;;11.80;93.82;96170.31;5338850;26;20013;-62
2024/05/04 03:09:12;;;;;;;4.55;3.35;;;;;;;12.01;92.54;96161.41;5339290;26;20689;-61
2024/05/04 03:11:37;;;;;;;5.72;3.03;;;;;;;12.12;92.14;96162.22;5338004;26;20020;-62
2024/05/04 03:14:03;;;;;;;6.55;3.20;;;;;;;12.19;90.60;96164.59;5337554;26;20064;-62
2024/05/04 03:16:28;;;;;;;4.13;2.92;;;;;;;12.01;90.92;96161.41;5339543;26;20115;-62
2024/05/04 03:18:53;;;;;;;4.43;3.08;;;;;;;11.95;91.77;96172.25;5338444;26;20432;-61
2024/05/04 03:21:19;;;;;;;3.97;2.90;;;;;;;12.10;90.51;96164.31;5338961;26;20005;-62
2024/05/04 03:23:44;;;;;;;5.55;3.35;;;;;;;12.04;91.75;96165.38;5336304;26;20757;-62
2024/05/04 03:26:09;;;;;;;3.83;2.63;;;;;;;12.03;91.76;96169.09;5329195;26;20020;-62
2024/05/04 03:28:34;;;;;;;5.82;3.42;;;;;;;11.96;91.38;96163.25;5337373;26;20009;-62
2024/05/04 03:31:02;;;;;;;5.10;3.15;;;;;;;11.96;92.73;96158.75;5339416;26;20340;-61
2024/05/04 03:33:27;;;;;;;4.93;3.38;;;;;;;12.07;92.79;96159.56;5337985;26;20005;-62
2024/05/04 03:35:53;;;;;;;7.55;3.63;;;;;;;12.20;91.31;96158.25;5335722;26;20019;-62
2024/05/04 03:38:18;;;;;;;4.53;3.13;;;;;;;12.20;89.88;96158.25;5337048;26;20047;-62
2024/05/04 03:40:43;;;;;;;3.25;2.72;;;;;;;12.24;90.96;96149.53;5341616;26;20005;-62
2024/05/04 03:43:09;;;;;;;5.53;3.53;;;;;;;12.30;88.70;96160.91;5338341;26;20024;-62
2024/05/04 03:45:34;;;;;;;4.10;2.92;;;;;;;12.31;89.02;96155.38;5326384;26;20005;-61
2024/05/04 03:47:59;;;;;;;9.30;3.20;;;;;;;11.85;90.60;96165.09;5341434;26;20518;-61
2024/05/04 03:50:25;;;;;;;6.70;2.75;;;;;;;11.59;93.87;96163.38;5341484;26;20005;-61
2024/05/04 03:52:51;;;;;;;4.88;3.55;;;;;;;11.76;93.70;96163.97;5341296;26;20031;-61
2024/05/04 03:55:16;;;;;;;5.50;3.92;;;;;;;11.76;94.96;96164.75;5341088;26;20348;-61
2024/05/04 03:57:42;;;;;;;11.65;3.72;;;;;;;11.32;96.96;96163.56;5340377;26;20036;-61
2024/05/04 04:00:07;;;;;;;5.72;3.22;;;;;;;11.25;97.05;96161.13;5341833;26;20009;-61
2024/05/04 04:02:33;;;;;;;6.07;3.17;;;;;;;11.40;96.76;96165.69;5340825;26;20012;-61
2024/05/04 04:04:58;;;;;;;4.32;3.83;;;;;;;11.45;96.10;96160.41;5339490;26;20040;-61
2024/05/04 04:07:23;;;;;;;5.50;4.35;;;;;;;11.53;95.19;96166.00;5340750;26;20479;-61
2024/05/04 04:09:49;;;;;;;4.00;3.20;;;;;;;11.74;93.96;96158.16;5340630;26;20023;-61
2024/05/04 04:12:15;;;;;;;4.65;3.08;;;;;;;11.74;94.23;96158.94;5340276;26;20110;-62
2024/05/04 04:14:41;;;;;;;5.80;3.92;;;;;;;11.83;93.67;96164.53;5341261;26;20448;-61
2024/05/04 04:17:08;;;;;;;8.57;4.10;;;;;;;11.67;92.10;96162.88;5339958;26;20083;-62
2024/05/04 04:19:37;;;;;;;5.15;3.63;;;;;;;11.68;92.80;96161.81;5342167;26;20013;-61
2024/05/04 04:22:02;;;;;;;6.35;3.97;;;;;;;11.80;92.51;96165.84;5339816;26;20017;-62
2024/05/04 04:24:27;;;;;;;6.35;3.40;;;;;;;11.31;92.58;96168.06;5340980;26;20830;-61
2024/05/04 04:26:53;;;;;;;4.97;3.80;;;;;;;11.20;96.43;96167.19;5338884;26;20349;-61
2024/05/04 04:29:18;;;;;;;5.50;3.13;;;;;;;11.29;97.40;96164.84;5341105;26;20024;-60
2024/05/04 04:31:43;;;;;;;7.18;4.32;;;;;;;11.19;99.42;96162.97;5340271;26;20009;-60
2024/05/04 04:34:08;;;;;;;8.27;3.42;;;;;;;11.09;98.78;96173.47;5341127;26;20021;-62
2024/05/04 04:36:34;;;;;;;9.65;3.40;;;;;;;11.50;97.93;96168.41;5340501;26;20009;-61
2024/05/04 04:38:59;;;;;;;5.68;3.92;;;;;;;11.42;95.78;96169.69;5340067;26;20012;-62
2024/05/04 04:41:24;;;;;;;4.00;3.00;;;;;;;11.61;98.73;96166.56;5340816;26;20009;-61
2024/05/04 04:43:50;;;;;;;6.70;3.95;;;;;;;11.93;93.74;96169.88;5339951;26;20082;-62
2024/05/04 04:46:15;;;;;;;4.97;3.50;;;;;;;11.50;94.92;96165.75;5341392;26;20087;-62
2024/05/04 04:48:41;;;;;;;6.45;3.38;;;;;;;11.98;92.75;96172.53;5340891;26;20009;-61
2024/05/04 04:51:06;;;;;;;4.07;3.40;;;;;;;12.05;93.27;96170.41;5340129;26;20457;-61
2024/05/04 04:53:31;;;;;;;4.78;3.38;;;;;;;11.79;93.46;96179.31;5340488;26;20021;-61
2024/05/04 04:55:57;;;;;;;5.95;3.63;;;;;;;11.57;96.46;96171.56;5339834;26;20085;-60
2024/05/04 04:58:22;;;;;;;7.28;3.75;;;;;;;11.16;97.71;96178.53;5333152;26;20017;-62
2024/05/04 05:00:47;;;;;;;7.07;4.88;;;;;;;11.19;99.50;96180.66;5346857;26;20087;-62
2024/05/04 05:03:13;;;;;;;6.95;4.38;;;;;;;10.78;100.00;96177.78;5340556;26;20037;-62
2024/05/04 05:05:38;;;;;;;6.53;3.72;;;;;;;10.70;100.00;96186.97;5340913;26;20116;-61
2024/05/04 05:08:04;;;;;;;6.00;3.70;;;;;;;10.60;100.00;96178.19;5340340;26;20021;-61
2024/05/04 05:10:29;;;;;;;4.60;3.22;;;;;;;10.61;100.00;96179.78;5338806;26;20008;-61
2024/05/04 05:12:54;;;;;;;5.38;3.75;;;;;;;10.74;100.00;96172.22;5340675;26;20024;-62
2024/05/04 05:15:20;;;;;;;5.50;3.95;;;;;;;10.41;100.00;96170.66;5339884;26;20008;-61
2024/05/04 05:17:45;;;;;;;5.87;3.80;;;;;;;10.52;100.00;96172.31;5341487;26;20020;-62
2024/05/04 05:20:10;;;;;;;6.53;3.80;;;;;;;10.76;100.00;96167.47;5339173;26;20636;-61
2024/05/04 05:22:35;;;;;;;4.63;3.15;;;;;;;10.87;100.00;96168.31;5337384;26;20310;-61
2024/05/04 05:25:02;;;;;;;4.77;3.43;;;;;;;11.32;97.79;96169.63;5339750;26;20008;-61
2024/05/04 05:27:28;;;;;;;4.70;3.58;;;;;;;11.34;97.85;96177.28;5341488;26;20738;-62
2024/05/04 05:29:53;;;;;;;4.68;3.65;;;;;;;11.19;98.63;96170.88;5339883;26;20019;-61
2024/05/04 05:32:18;;;;;;;4.88;3.33;;;;;;;11.79;96.17;96174.03;5340542;26;20117;-62
2024/05/04 05:34:44;;;;;;;4.13;3.13;;;;;;;11.43;96.45;96171.25;5340689;26;20020;-61
2024/05/04 05:37:09;;;;;;;8.00;3.67;;;;;;;11.39;94.88;96166.75;5339746;26;20049;-61
2024/05/04 05:39:34;;;;;;;7.47;3.78;;;;;;;11.71;92.58;96171.88;5340281;26;20540;-62
2024/05/04 05:41:59;;;;;;;4.70;3.33;;;;;;;11.91;91.28;96171.97;5339536;26;20017;-60
2024/05/04 05:44:25;;;;;;;4.88;3.00;;;;;;;12.07;91.11;96163.03;5340580;26;20019;-62
2024/05/04 05:46:51;;;;;;;6.78;2.90;;;;;;;12.49;85.13;96164.59;5339553;26;20021;-60
2024/05/04 05:49:16;;;;;;;7.40;3.17;;;;;;;12.04;88.28;96166.19;5340611;26;20009;-62
2024/05/04 05:51:41;;;;;;;3.20;2.67;;;;;;;12.02;89.70;96176.19;5339659;26;20020;-62
2024/05/04 05:54:07;;;;;;;5.57;3.70;;;;;;;11.92;89.23;96178.84;5331645;26;20532;-62
2024/05/04 05:56:33;;;;;;;5.68;3.47;;;;;;;12.14;90.46;96175.19;5339742;26;20240;-63
2024/05/04 05:58:59;;;;;;;3.60;2.80;;;;;;;12.40;87.92;96181.28;5340811;26;20361;-61
2024/05/04 06:01:24;;;;;;;3.63;2.58;;;;;;;12.45;84.66;96181.28;5340591;26;20020;-61
2024/05/04 06:03:49;;;;;;;4.33;2.97;;;;;;;11.40;91.86;96187.66;5339321;26;20456;-62
2024/05/04 06:06:15;;;;;;;6.03;2.80;;;;;;;11.84;93.68;96187.28;5340452;26;20240;-62
2024/05/04 06:08:40;;;;;;;4.55;2.85;;;;;;;11.62;91.86;96186.66;5338913;26;20013;-63
2024/05/04 06:11:05;;;;;;;4.65;2.65;;;;;;;11.57;92.16;96195.34;5340017;26;20102;-63
2024/05/04 06:13:31;;;;;;;3.63;2.80;;;;;;;11.78;92.94;96193.56;5340174;26;20005;-62
2024/05/04 06:15:56;;;;;;;3.70;2.45;;;;;;;11.97;90.16;96188.63;5339834;26;20925;-62
2024/05/04 06:18:21;;;;;;;2.50;2.08;;;;;;;11.74;89.33;96197.81;5339530;26;20005;-62
2024/05/04 06:20:46;;;;;;;5.17;2.17;;;;;;;12.04;90.60;96195.28;5339751;26;20225;-62
2024/05/04 06:23:12;;;;;;;2.38;2.00;;;;;;;12.37;87.49;96193.19;5334176;26;20625;-62
2024/05/04 06:25:37;;;;;;;3.05;2.00;;;;;;;11.99;87.37;96195.25;5340227;26;20425;-62
2024/05/04 06:28:03;;;;;;;3.30;2.30;;;;;;;12.00;87.37;96194.19;5334475;26;20009;-63
2024/05/04 06:30:28;;;;;;;3.00;2.00;;;;;;;12.15;86.63;96193.44;5339723;26;20079;-62
2024/05/04 06:32:53;;;;;;;3.70;2.58;;;;;;;11.94;87.59;96197.91;5339699;26;20698;-61
2024/05/04 06:35:18;;;;;;;3.17;1.87;;;;;;;12.22;84.78;96195.84;5338713;26;20028;-62
2024/05/04 06:37:46;;;;;;;7.40;2.17;;;;;;;12.74;81.78;96194.78;5340331;26;20686;-62
2024/05/04 06:40:12;;;;;;;2.38;1.85;;;;;;;12.83;80.88;96203.75;5338620;26;20352;-61
2024/05/04 06:42:38;;;;;;;3.22;2.00;;;;;;;12.73;80.97;96193.97;5339951;26;20024;-61
2024/05/04 06:45:03;;;;;;;3.28;2.38;;;;;;;12.47;84.17;96195.06;5338285;26;20068;-62
2024/05/04 06:47:29;;;;;;;3.40;2.35;;;;;;;12.60;84.44;96189.25;5339752;26;20024;-61
2024/05/04 06:49:54;;;;;;;7.63;1.98;;;;;;;12.86;82.47;96200.59;5338692;26;20013;-62
2024/05/04 06:52:19;;;;;;;3.03;2.00;;;;;;;12.86;78.38;96203.25;5339056;26;20024;-62
2024/05/04 06:54:44;;;;;;;5.53;1.83;;;;;;;12.82;74.31;96205.63;5347624;26;20013;-62
2024/05/04 06:57:10;;;;;;;3.42;2.08;;;;;;;13.38;73.58;96204.75;5338685;26;20023;-62
2024/05/04 06:59:36;;;;;;;3.15;2.00;;;;;;;13.76;73.26;96194.53;5340454;26;20083;-62
2024/05/04 07:02:03;;;;;;;3.45;1.80;;;;;;;14.12;73.69;96205.75;5338703;26;20037;-63
2024/05/04 07:04:28;;;;;;;2.28;1.80;;;;;;;14.03;72.57;96208.19;5339526;26;20005;-62
2024/05/04 07:06:55;;;;;;;1.77;1.20;;;;;;;14.23;71.80;96209.13;5338931;26;20087;-63
2024/05/04 07:09:22;;;;;;;2.05;1.73;;;;;;;14.14;71.13;96210.78;5330767;26;20012;-61
2024/05/04 07:11:48;;;;;;;3.92;1.95;;;;;;;14.62;70.89;96206.50;5333228;26;20456;-62
2024/05/04 07:14:13;;;;;;;4.30;1.88;;;;;;;14.60;66.83;96204.09;5333322;26;20009;-62
2024/05/04 07:16:41;;;;;;;2.72;2.03;;;;;;;14.67;66.90;96218.97;5338946;26;20399;-62
2024/05/04 07:19:07;;;;;;;2.60;2.00;;;;;;;14.92;70.14;96208.09;5335473;26;20127;-62
2024/05/04 07:21:32;;;;;;;3.28;1.60;;;;;;;15.39;68.56;96207.38;5335839;26;20025;-63
2024/05/04 07:23:58;;;;;;;2.33;1.48;;;;;;;15.57;66.00;96211.16;5342480;26;20081;-63
2024/05/04 07:26:23;;;;;;;5.70;1.88;;;;;;;15.45;64.34;96207.31;5343141;26;20491;-62
2024/05/04 07:28:49;;;;;;;3.28;1.77;;;;;;;14.74;67.74;96206.13;5341335;26;20464;-62
2024/05/04 07:31:15;;;;;;;2.05;1.67;;;;;;;15.37;66.01;96203.41;5366251;26;20040;-61
2024/05/04 07:33:41;;;;;;;2.75;1.50;;;;;;;15.77;63.63;96212.03;5341859;26;20019;-62
2024/05/04 07:36:06;;;;;;;1.40;1.30;;;;;;;16.20;63.44;96201.34;5342029;26;20017;-63
2024/05/04 07:38:32;;;;;;;5.18;1.45;;;;;;;16.38;61.26;96208.53;5341362;26;20049;-61
2024/05/04 07:40:57;;;;;;;2.22;1.40;;;;;;;16.68;61.54;96201.94;5343061;26;20109;-63
2024/05/04 07:43:22;;;;;;;3.75;1.45;;;;;;;16.81;60.31;96203.09;5339547;26;20040;-62
2024/05/04 07:45:47;;;;;;;2.35;1.17;;;;;;;16.98;60.25;96203.34;5342388;26;20529;-62
2024/05/04 07:48:14;;;;;;;1.20;1.10;;;;;;;16.93;58.09;96217.53;5340567;26;20008;-63
2024/05/04 07:50:39;;;;;;;5.20;1.20;;;;;;;16.66;57.67;96199.56;5342019;26;20325;-62
2024/05/04 07:53:05;;;;;;;1.50;1.17;;;;;;;16.09;57.99;96201.47;5341602;26;20087;-63
2024/05/04 07:55:30;;;;;;;2.65;1.50;;;;;;;16.03;58.16;96207.16;5342348;26;20013;-62
2024/05/04 07:57:55;;;;;;;2.38;0.95;;;;;;;15.75;58.49;96206.97;5341672;26;20016;-61
2024/05/04 08:00:22;;;;;;;1.47;1.20;;;;;;;15.56;58.79;96193.59;5340836;26;20467;-62
2024/05/04 08:02:47;;;;;;;3.53;1.17;;;;;;;16.50;58.92;96200.09;5341606;26;20271;-62
2024/05/04 08:05:12;;;;;;;1.17;0.85;;;;;;;16.89;57.58;96187.22;5338274;26;20013;-62
2024/05/04 08:07:37;;;;;;;2.25;1.10;;;;;;;17.23;55.63;96179.97;5341982;26;20009;-62
2024/05/04 08:10:03;;;;;;;1.17;0.97;;;;;;;17.10;54.08;96184.19;5340859;26;20017;-62
2024/05/04 08:12:28;;;;;;;1.85;0.90;;;;;;;17.30;54.27;96188.38;5342462;26;20734;-62
2024/05/04 08:14:54;;;;;;;3.33;0.95;;;;;;;17.62;54.91;96188.25;5340882;26;20020;-62
2024/05/04 08:17:19;;;;;;;1.52;0.98;;;;;;;16.91;55.08;96187.75;5339685;26;20009;-62
2024/05/04 08:19:44;;;;;;;1.65;1.10;;;;;;;17.26;55.00;96179.38;5342631;26;20461;-63
2024/05/04 08:22:10;;;;;;;2.35;1.20;;;;;;;17.55;55.91;96189.78;5339742;26;20094;-68
2024/05/04 08:24:35;;;;;;;3.22;1.13;;;;;;;17.88;54.02;96179.78;5330033;26;20430;-62
2024/05/04 08:27:00;;;;;;;1.60;0.95;;;;;;;18.31;53.14;96182.84;5341071;26;20021;-63
2024/05/04 08:29:26;;;;;;;2.33;1.38;;;;;;;18.63;51.22;96179.13;5341246;26;20715;-63
2024/05/04 08:31:51;;;;;;;2.40;1.27;;;;;;;18.70;52.95;96174.19;5339628;26;20404;-62
2024/05/04 08:34:16;;;;;;;3.20;1.25;;;;;;;17.69;51.96;96177.22;5341519;26;20602;-61
2024/05/04 08:36:42;;;;;;;1.00;0.90;;;;;;;18.04;53.70;96175.69;5340964;26;20366;-63
2024/05/04 08:39:07;;;;;;;1.98;1.10;;;;;;;18.39;53.37;96178.63;5341335;26;20005;-61
2024/05/04 08:41:32;;;;;;;2.25;1.20;;;;;;;18.48;53.69;96182.16;5340835;26;20437;-62
2024/05/04 08:43:58;;;;;;;3.10;1.30;;;;;;;18.65;51.51;96174.28;5341416;26;20445;-61
2024/05/04 08:46:25;;;;;;;2.30;1.33;;;;;;;18.28;51.76;96175.41;5341301;26;20020;-62
2024/05/04 08:48:50;;;;;;;1.42;0.90;;;;;;;18.60;52.43;96162.94;5340927;26;20009;-62
2024/05/04 08:51:17;;;;;;;1.48;0.73;;;;;;;18.56;52.00;96156.59;5340788;26;20009;-62
2024/05/04 08:53:42;;;;;;;1.65;1.00;;;;;;;17.22;51.04;96165.06;5340919;26;20021;-61
2024/05/04 08:56:12;;;;;;;1.75;0.98;;;;;;;17.41;52.05;96149.75;5341659;26;20087;-61
2024/05/04 08:58:48;;;;;;;1.42;1.00;;;;;;;17.87;52.48;96162.16;5340628;26;20084;-61
2024/05/04 09:01:14;;;;;;;1.38;1.15;;;;;;;17.85;51.60;96161.69;5337111;26;20077;-62
2024/05/04 09:03:40;;;;;;;2.67;1.20;;;;;;;18.04;50.85;96140.97;5340445;26;20028;-62
2024/05/04 09:06:07;;;;;;;2.03;1.33;;;;;;;18.64;51.25;96145.97;5338212;26;20005;-62
2024/05/04 09:08:32;;;;;;;4.28;1.20;;;;;;;18.18;51.78;96147.06;5335999;26;20016;-62
2024/05/04 09:10:57;;;;;;;2.10;1.15;;;;;;;18.92;51.74;96143.16;5341722;26;20013;-61
2024/05/04 09:13:22;;;;;;;3.72;1.45;;;;;;;19.60;48.82;96143.78;5336984;26;20031;-62
2024/05/04 09:15:55;;;;;;;3.97;1.42;;;;;;;19.70;49.27;96141.59;5331453;26;20431;-61
2024/05/04 09:18:21;;;;;;;2.10;1.38;;;;;;;19.78;46.76;96141.91;5337959;26;20020;-62
2024/05/04 09:20:46;;;;;;;2.50;1.35;;;;;;;17.40;52.79;96132.97;5338443;26;20044;-61
2024/05/04 09:23:11;;;;;;;2.60;1.30;;;;;;;18.12;52.10;96136.81;5339909;26;20019;-61
2024/05/04 09:25:38;;;;;;;4.32;1.98;;;;;;;18.71;49.42;96127.63;5341135;26;20086;-61
2024/05/04 09:28:04;;;;;;;4.90;1.75;;;;;;;18.31;51.04;96133.97;5339984;26;20019;-61
2024/05/04 09:30:31;;;;;;;2.28;1.30;;;;;;;19.26;49.52;96120.31;5339080;26;20021;-62
2024/05/04 09:32:58;;;;;;;2.28;1.45;;;;;;;19.87;48.68;96123.97;5340831;26;20016;-62
2024/05/04 09:35:26;;;;;;;1.52;1.27;;;;;;;19.98;46.60;96125.25;5335091;26;20009;-62
2024/05/04 09:38:07;;;;;;;1.67;1.08;;;;;;;19.99;47.19;96126.81;5341284;26;20808;-62
2024/05/04 09:40:35;;;;;;;2.65;1.42;;;;;;;20.31;46.96;96122.06;5338674;26;20827;-63
2024/05/04 09:43:04;;;;;;;1.40;1.30;;;;;;;19.63;48.56;96124.41;5340700;26;20440;-63
2024/05/04 09:45:30;;;;;;;1.65;1.35;;;;;;;18.45;50.20;96129.34;5339540;26;20016;-62
2024/05/04 09:47:57;;;;;;;3.10;1.50;;;;;;;18.20;50.54;96123.53;5341014;26;20020;-62
2024/05/04 09:50:24;;;;;;;1.30;1.20;;;;;;;18.44;49.60;96117.88;5339453;26;20025;-62
2024/05/04 09:52:49;;;;;;;2.53;1.17;;;;;;;19.22;49.64;96109.47;5340751;26;20009;-62
2024/05/04 09:55:15;;;;;;;1.15;1.05;;;;;;;19.37;49.25;96113.59;5338250;26;20016;-62
2024/05/04 09:57:45;;;;;;;1.40;1.00;;;;;;;18.57;49.01;96110.06;5341672;26;20102;-63
2024/05/04 10:00:11;;;;;;;2.30;1.50;;;;;;;17.90;51.42;96108.19;5334577;26;20017;-61
2024/05/04 10:02:42;;;;;;;1.50;1.20;;;;;;;18.96;50.06;96098.66;5330460;26;20013;-65
2024/05/04 10:05:11;;;;;;;2.60;1.10;;;;;;;19.96;47.62;96093.41;5331965;26;20016;-62
2024/05/04 10:07:37;;;;;;;3.75;1.17;;;;;;;20.79;47.72;96086.97;5339866;26;20005;-61
2024/05/04 10:10:03;;;;;;;3.40;1.42;;;;;;;21.61;44.69;96092.97;5339890;26;20013;-62
2024/05/04 10:12:30;;;;;;;1.40;1.20;;;;;;;21.21;45.51;96085.25;5340721;26;20008;-63
2024/05/04 10:15:04;;;;;;;2.03;1.30;;;;;;;20.43;45.66;96092.75;5340537;26;20005;-62
2024/05/04 10:17:30;;;;;;;0.82;0.77;;;;;;;18.81;48.12;96101.75;5340795;26;20012;-62
2024/05/04 10:20:08;;;;;;;2.38;1.48;;;;;;;20.03;46.88;96105.56;5338402;26;20526;-63
2024/05/04 10:22:36;;;;;;;1.73;1.40;;;;;;;20.58;46.89;96092.25;5336692;26;20479;-62
2024/05/04 10:25:02;;;;;;;2.67;1.02;;;;;;;19.20;47.71;96099.06;5338932;26;20019;-62
2024/05/04 10:27:28;;;;;;;2.42;1.17;;;;;;;19.84;48.36;96097.81;5340308;26;20813;-62
2024/05/04 10:29:53;;;;;;;2.63;1.48;;;;;;;20.60;46.42;96089.25;5339212;26;20009;-62
2024/05/04 10:32:18;;;;;;;1.45;0.98;;;;;;;21.00;45.69;96092.44;5336400;26;20009;-62
2024/05/04 10:34:44;;;;;;;4.95;1.08;;;;;;;20.77;45.71;96101.84;5339160;26;20059;-63
2024/05/04 10:37:10;;;;;;;2.03;0.98;;;;;;;19.57;47.98;96106.88;5339668;26;20001;-63
2024/05/04 10:39:36;;;;;;;1.50;1.30;;;;;;;19.88;47.07;96096.06;5339734;26;20013;-63
2024/05/04 10:42:02;;;;;;;2.92;1.20;;;;;;;20.08;46.64;96098.13;5339525;26;20564;-62
2024/05/04 10:44:28;;;;;;;1.20;1.10;;;;;;;20.54;47.24;96088.63;5340377;26;20526;-62
2024/05/04 10:46:54;;;;;;;10.57;1.65;;;;;;;20.09;46.77;96091.69;5333681;26;20001;-62
2024/05/04 10:49:19;;;;;;;2.20;1.52;;;;;;;20.33;47.35;96093.06;5338757;26;20009;-62
2024/05/04 10:51:45;;;;;;;2.00;1.80;;;;;;;19.29;48.98;96092.97;5335725;26;20522;-63
2024/05/04 10:54:16;;;;;;;1.65;1.50;;;;;;;17.23;53.50;96094.63;5330644;26;20023;-62
2024/05/04 10:56:43;;;;;;;1.85;1.48;;;;;;;17.13;53.88;96091.09;5338426;26;20082;-60
2024/05/04 10:59:09;;;;;;;2.63;1.70;;;;;;;17.46;54.07;96098.97;5339355;26;20455;-62
2024/05/04 11:01:34;;;;;;;4.10;2.03;;;;;;;17.72;50.63;96096.53;5337777;26;20017;-61
2024/05/04 11:04:00;;;;;;;2.30;1.30;;;;;;;16.99;51.41;96095.63;5329725;26;20027;-62
2024/05/04 11:06:26;;;;;;;2.75;1.45;;;;;;;17.28;53.38;96097.97;5334006;26;20019;-61
2024/05/04 11:08:51;;;;;;;1.88;1.30;;;;;;;17.82;52.16;96084.88;5336298;26;20013;-62
2024/05/04 11:11:17;;;;;;;2.03;1.20;;;;;;;17.75;52.69;96092.50;5340294;26;20015;-61
2024/05/04 11:13:51;;;;;;;1.80;1.52;;;;;;;18.41;50.75;96074.94;5335858;26;20016;-62
2024/05/04 11:16:17;;;;;;;2.08;1.42;;;;;;;19.44;48.98;96073.78;5339625;26;20036;-62
2024/05/04 11:18:42;;;;;;;3.92;1.63;;;;;;;19.88;48.01;96071.97;5338170;26;20580;-61
2024/05/04 11:21:07;;;;;;;4.50;1.27;;;;;;;20.74;47.67;96071.88;5333173;26;20005;-62
2024/05/04 11:23:33;;;;;;;2.38;1.50;;;;;;;20.71;45.15;96075.19;5336389;26;20452;-62
2024/05/04 11:25:58;;;;;;;3.45;1.30;;;;;;;19.90;47.33;96075.13;5338757;26;20475;-63